East Laurinburg, North Carolina
Current Conditions -  °F | °C
As of 12:52 AM on Wednesday 22 Oct 2014 (Local Time) from KMEB Reporting Station
Few Clouds Few Clouds  
Wind Chill: 59°   Ceiling: Unl
Heat Index: 59°   Visibility: 10mi
Dew Point: 41°   Wind: 8mph
Humidity: 51%   Direction: 350°N
Pressure: 29.95"   Gusts: NA
Location:  34.7588°N, 79.4468°W
Report Text: KMEB 220452Z AUTO 35007KT 10SM FEW070 15/05 A2995 RMK AO2 SLP140 T01500050 402440089
Loading
Personal Weather Stations






























Interactive Weather Map
Tropical Storm Tracking
New forecast layout! Learn more

10-Day Weather Forecast

Advertisements
Track Severe Weather on mobile